Nearby METAR Reports

 

LELL - Sabadell, Spain
Distance from station: E 19km
Actualización: 02/02/2023 22:00
Despejado
Despejado
 Viento del ONO
Viento: ONO 7 km/h
Temperatura: 5°C
Sensación: 3°C
Rocío: -1°C
Humedad: 66%
Barómetro: 1029 hPa
Resumen: Despejado
Visibility: greater than 10 km
2023/02/02 21:00 LELL 022100Z AUTO 29004KT CAVOK 05/M01 Q1029
LEBL - Barcelona Airpor, Spain
Distance from station: SSE 30km
Actualización: 02/02/2023 22:00
Few Clouds
Few Clouds
 Viento del NNO
Viento: NNO 9 km/h
Temperatura: 10°C
Sensación: 9°C
Rocío: 1°C
Humedad: 54%
Barómetro: 1029 hPa
Clouds: Few Clouds
Visibility: 10 km
Cloud details: Few Clouds 366 m
2023/02/02 21:00 LEBL 022100Z 34005KT 9999 FEW012 10/01 Q1029 NOSIG
 
LERS - Reus (civ/Mil), Spain
Distance from station: SO 71km
Actualización: 02/02/2023 22:00
Despejado
Despejado
 Viento del NNO
Viento: NNO 6 km/h
Temperatura: 3°C
Rocío: -2°C
Humedad: 70%
Barómetro: 1029 hPa
Resumen: Despejado
Visibility: greater than 10 km
2023/02/02 21:00 LERS 022100Z 33003KT 290V040 CAVOK 03/M02 Q1029
LEGE - Gerona/Costa Bra, Spain
Distance from station: ENE 86km
Actualización: 02/02/2023 22:00
Despejado
Despejado
 Viento del varies
Viento: varies 4 km/h
Temperatura: 4°C
Rocío: 2°C
Humedad: 87%
Barómetro: 1029 hPa
Resumen: Despejado
Visibility: greater than 10 km
2023/02/02 21:00 LEGE 022100Z VRB02KT CAVOK 04/02 Q1029
 
LESU - Pirineus/La Seu, Spain
Distance from station: NNO 101km
Actualización: 02/02/2023 17:00
NOT Current
Despejado
Despejado
 Viento del NNE
Viento: NNE 22 km/h
Temperatura: 15°C
Rocío: -16°C
Humedad: 10%
Barómetro: 1027 hPa
Resumen: Despejado
Visibility: greater than 10 km
2023/02/02 16:00 LESU 021600Z 03012KT 350V060 CAVOK 15/M16 Q1027
LEDA - Lleida/Alguaire, Spain
Distance from station: ONO 114km
Actualización: 02/02/2023 22:00
Despejado
Despejado
 Viento del NE
Viento: NE 9 km/h
Temperatura: 2°C
Sensación: -1°C
Rocío: 0°C
Humedad: 87%
Barómetro: 1030 hPa
Clouds: Despejado
Visibility: 9 km
2023/02/02 21:00 LEDA 022100Z AUTO 04005KT 9000 NCD 02/M00 Q1030